KAHN/AHN METAR and TAF weather

Enter ICAO airport designator
Station Type Date Time Source
KAHN METAR 2020/04/07 02:51 UTC NOAA

KAHN 070251Z AUTO 00000KT 10SM CLR 21/11 A3006 RMK AO2 SLP174 T02060111 53015


Station Type Date Time Source
KAHN Decoded METAR 2020/04/07 02:51 UTC NOAA

ATHENS BEN EPPS AIRPORT, GA, United States (KAHN) 33-57N 083-20W 244M
Apr 06, 2020 - 10:51 PM EDT / 2020.04.07 0251 UTC
Wind: Calm:0
Visibility: 10 mile(s):0
Sky conditions: clear
Temperature: 69.1 F (20.6 C)
Dew Point: 52.0 F (11.1 C)
Relative Humidity: 54%
Pressure (altimeter): 30.06 in. Hg (1017 hPa)
Pressure tendency: 0.04 inches (1.5 hPa) higher than three hours ago
ob: KAHN 070251Z AUTO 00000KT 10SM CLR 21/11 A3006 RMK AO2 SLP174 T02060111 53015
cycle: 3

Station Type Date Time Source
KAHN TAF 2020/04/06 20:33 UTC NOAA

TAF
AMD KAHN 061930Z 0620/0718 23006KT P6SM VCSH SCT070 SCT100 BKN250
FM070000 23003KT P6SM SCT250
FM071000 25003KT P6SM SCT060 BKN120
FM071700 27007KT P6SM VCSH SCT030 BKN050 OVC100

Example: see airport list